createdAt,value
2018-04-18T00:00:41.146Z,0
2018-04-18T00:01:40.889Z,0
2018-04-18T00:02:41.178Z,0
2018-04-18T00:03:40.932Z,0
2018-04-18T00:04:41.211Z,0
2018-04-18T00:05:40.974Z,0
2018-04-18T00:06:41.255Z,0
2018-04-18T00:07:41.278Z,0
2018-04-18T00:08:41.062Z,0
2018-04-18T00:09:41.317Z,0
2018-04-18T00:10:40.838Z,0
2018-04-18T00:11:41.360Z,0
2018-04-18T00:12:41.390Z,0
2018-04-18T00:13:41.458Z,0
2018-04-18T00:14:41.427Z,0
2018-04-18T00:15:41.448Z,0
2018-04-18T00:16:41.226Z,0
2018-04-18T00:17:41.504Z,0
2018-04-18T00:18:41.513Z,0
2018-04-18T00:19:41.553Z,0
2018-04-18T00:20:41.316Z,0
2018-04-18T00:21:41.335Z,0
2018-04-18T00:22:41.614Z,0
2018-04-18T00:23:41.375Z,0
2018-04-18T00:24:41.647Z,0
2018-04-18T00:25:41.681Z,0
2018-04-18T00:26:41.697Z,0
2018-04-18T00:27:41.446Z,0
2018-04-18T00:28:41.787Z,0
2018-04-18T00:29:41.742Z,0
2018-04-18T00:30:41.521Z,0
2018-04-18T00:31:41.795Z,0
2018-04-18T00:32:41.757Z,0
2018-04-18T00:33:41.897Z,0
2018-04-18T00:34:41.891Z,0
2018-04-18T00:35:41.893Z,0
2018-04-18T00:36:41.661Z,0
2018-04-18T00:37:41.949Z,0
2018-04-18T00:38:41.725Z,0
2018-04-18T00:39:41.986Z,0
2018-04-18T00:40:41.749Z,0
2018-04-18T00:41:42.026Z,0
2018-04-18T00:42:42.054Z,0
2018-04-18T00:43:42.063Z,0
2018-04-18T00:44:42.087Z,0
2018-04-18T00:45:42.116Z,0
2018-04-18T00:46:42.138Z,0
2018-04-18T00:47:42.149Z,0
2018-04-18T00:48:42.235Z,0
2018-04-18T00:49:42.194Z,0
2018-04-18T00:50:41.988Z,0
2018-04-18T00:51:42.239Z,0
2018-04-18T00:52:42.261Z,0
2018-04-18T00:53:42.382Z,0
2018-04-18T00:54:42.302Z,0
2018-04-18T00:55:42.327Z,0
2018-04-18T00:56:42.374Z,0
2018-04-18T00:57:42.368Z,0
2018-04-18T00:58:42.395Z,0
2018-04-18T00:59:42.412Z,0
2018-04-18T01:00:42.435Z,0
2018-04-18T01:01:42.205Z,0
2018-04-18T01:02:42.594Z,0
2018-04-18T01:03:42.518Z,0
2018-04-18T01:04:42.627Z,0
2018-04-18T01:05:42.564Z,0
2018-04-18T01:06:42.356Z,0
2018-04-18T01:07:42.497Z,0
2018-04-18T01:08:42.606Z,0
2018-04-18T01:09:42.628Z,0
2018-04-18T01:10:42.650Z,0
2018-04-18T01:11:42.419Z,0
2018-04-18T01:12:42.695Z,0
2018-04-18T01:13:42.716Z,0
2018-04-18T01:14:42.739Z,0
2018-04-18T01:15:42.761Z,0
2018-04-18T01:16:42.786Z,0
2018-04-18T01:17:42.801Z,0
2018-04-18T01:18:42.828Z,0
2018-04-18T01:19:42.593Z,0
2018-04-18T01:20:42.591Z,0
2018-04-18T01:21:42.620Z,0
2018-04-18T01:22:42.787Z,0
2018-04-18T01:23:42.912Z,0
2018-04-18T01:24:42.926Z,0
2018-04-18T01:25:42.720Z,0
2018-04-18T01:26:42.497Z,0
2018-04-18T01:27:42.762Z,0
2018-04-18T01:28:43.040Z,0
2018-04-18T01:29:42.545Z,0
2018-04-18T01:30:43.073Z,0
2018-04-18T01:31:43.103Z,0
2018-04-18T01:32:43.122Z,0
2018-04-18T01:33:43.153Z,0
2018-04-18T01:34:42.656Z,0
2018-04-18T01:35:42.679Z,0
2018-04-18T01:36:43.207Z,0
2018-04-18T01:37:43.029Z,0
2018-04-18T01:38:43.248Z,0
2018-04-18T01:39:42.767Z,0
2018-04-18T01:40:43.310Z,0
2018-04-18T01:41:43.312Z,0
2018-04-18T01:42:43.331Z,0
2018-04-18T01:43:43.354Z,0
2018-04-18T01:44:43.135Z,0
2018-04-18T01:45:43.403Z,0
2018-04-18T01:46:43.417Z,0
2018-04-18T01:47:43.542Z,0
2018-04-18T01:48:43.458Z,0
2018-04-18T01:49:43.506Z,0
2018-04-18T01:50:43.513Z,0
2018-04-18T01:51:43.531Z,0
2018-04-18T01:52:43.611Z,0
2018-04-18T01:53:43.570Z,0
2018-04-18T01:54:43.602Z,0
2018-04-18T01:55:43.622Z,0
2018-04-18T01:56:43.642Z,0
2018-04-18T01:57:43.658Z,0
2018-04-18T01:58:43.674Z,0
2018-04-18T01:59:43.448Z,0
2018-04-18T02:00:43.741Z,0
2018-04-18T02:01:43.737Z,0
2018-04-18T02:02:43.784Z,0
2018-04-18T02:03:43.534Z,0
2018-04-18T02:04:43.802Z,0
2018-04-18T02:05:43.832Z,0
2018-04-18T02:06:43.609Z,0
2018-04-18T02:07:43.882Z,0
2018-04-18T02:08:44.037Z,0
2018-04-18T02:09:43.656Z,0
2018-04-18T02:10:43.944Z,0
2018-04-18T02:11:43.953Z,0
2018-04-18T02:12:43.715Z,0
2018-04-18T02:13:43.991Z,0
2018-04-18T02:14:43.763Z,0
2018-04-18T02:15:44.022Z,0
2018-04-18T02:16:44.065Z,0
2018-04-18T02:17:44.083Z,0
2018-04-18T02:18:44.120Z,0
2018-04-18T02:19:44.121Z,0
2018-04-18T02:20:43.889Z,0
2018-04-18T02:21:43.914Z,0
2018-04-18T02:22:44.187Z,0
2018-04-18T02:23:44.007Z,0
2018-04-18T02:24:43.970Z,0
2018-04-18T02:25:43.994Z,0
2018-04-18T02:26:44.272Z,0
2018-04-18T02:27:43.783Z,0
2018-04-18T02:28:44.312Z,0
2018-04-18T02:29:44.337Z,0
2018-04-18T02:30:44.354Z,0
2018-04-18T02:31:44.389Z,0
2018-04-18T02:32:44.402Z,0
2018-04-18T02:33:44.423Z,0
2018-04-18T02:34:44.450Z,0
2018-04-18T02:35:44.480Z,0
2018-04-18T02:36:44.228Z,0
2018-04-18T02:37:44.264Z,0
2018-04-18T02:38:44.581Z,0
2018-04-18T02:39:44.554Z,0
2018-04-18T02:40:44.572Z,0
2018-04-18T02:41:44.355Z,0
2018-04-18T02:42:44.612Z,0
2018-04-18T02:43:44.135Z,0
2018-04-18T02:44:44.404Z,0
2018-04-18T02:45:44.681Z,0
2018-04-18T02:46:44.697Z,0
2018-04-18T02:47:44.718Z,0
2018-04-18T02:48:44.741Z,0
2018-04-18T02:49:44.476Z,0
2018-04-18T02:50:44.769Z,0
2018-04-18T02:51:44.771Z,0
2018-04-18T02:52:44.542Z,0
2018-04-18T02:53:44.868Z,0
2018-04-18T02:54:44.595Z,0
2018-04-18T02:55:44.860Z,0
2018-04-18T02:56:44.876Z,0
2018-04-18T02:57:44.935Z,0
2018-04-18T02:58:44.939Z,0
2018-04-18T02:59:44.693Z,0
2018-04-18T03:00:44.467Z,0
2018-04-18T03:01:44.747Z,0
2018-04-18T03:02:44.771Z,0
2018-04-18T03:03:44.793Z,0
2018-04-18T03:04:45.072Z,0
2018-04-18T03:05:44.832Z,0
2018-04-18T03:06:45.104Z,0
2018-04-18T03:07:44.880Z,0
2018-04-18T03:08:45.200Z,0
2018-04-18T03:09:45.182Z,0
2018-04-18T03:10:44.943Z,0
2018-04-18T03:11:45.222Z,0
2018-04-18T03:12:44.988Z,0
2018-04-18T03:13:45.250Z,0
2018-04-18T03:14:45.019Z,0
2018-04-18T03:15:45.293Z,0
2018-04-18T03:16:45.320Z,0
2018-04-18T03:17:45.080Z,0
2018-04-18T03:18:45.476Z,0
2018-04-18T03:19:45.378Z,0
2018-04-18T03:20:45.149Z,0
2018-04-18T03:21:45.153Z,0
2018-04-18T03:22:45.436Z,0
2018-04-18T03:23:45.712Z,0
2018-04-18T03:24:45.490Z,0
2018-04-18T03:25:45.505Z,0
2018-04-18T03:26:45.649Z,0
2018-04-18T03:27:45.289Z,0
2018-04-18T03:28:45.585Z,0
2018-04-18T03:29:45.594Z,0
2018-04-18T03:30:45.611Z,0
2018-04-18T03:31:45.616Z,0
2018-04-18T03:32:45.383Z,0
2018-04-18T03:33:45.660Z,0
2018-04-18T03:34:45.676Z,0
2018-04-18T03:35:45.447Z,0
2018-04-18T03:36:45.727Z,0
2018-04-18T03:37:45.748Z,4
2018-04-18T03:38:45.807Z,4
2018-04-18T03:39:45.781Z,4
2018-04-18T03:40:45.873Z,4
2018-04-18T03:41:45.833Z,4
2018-04-18T03:42:45.582Z,4
2018-04-18T03:43:45.952Z,4
2018-04-18T03:44:45.873Z,4
2018-04-18T03:45:45.897Z,4
2018-04-18T03:46:45.914Z,4
2018-04-18T03:47:45.694Z,4
2018-04-18T03:48:45.552Z,0
2018-04-18T03:49:45.723Z,4
2018-04-18T03:50:45.993Z,4
2018-04-18T03:51:46.031Z,4
2018-04-18T03:52:45.801Z,8
2018-04-18T03:53:45.863Z,4
2018-04-18T03:54:46.090Z,8
2018-04-18T03:55:46.105Z,8
2018-04-18T03:56:46.128Z,8
2018-04-18T03:57:46.147Z,8
2018-04-18T03:58:46.173Z,8
2018-04-18T03:59:46.198Z,12
2018-04-18T04:00:46.211Z,16
2018-04-18T04:01:46.239Z,16
2018-04-18T04:02:46.258Z,20
2018-04-18T04:03:46.283Z,24
2018-04-18T04:04:46.046Z,28
2018-04-18T04:05:46.317Z,32
2018-04-18T04:06:46.102Z,36
2018-04-18T04:07:46.103Z,40
2018-04-18T04:08:46.426Z,52
2018-04-18T04:09:46.406Z,56
2018-04-18T04:10:46.420Z,68
2018-04-18T04:11:46.438Z,76
2018-04-18T04:12:46.477Z,84
2018-04-18T04:13:46.240Z,100
2018-04-18T04:14:46.512Z,112
2018-04-18T04:15:46.522Z,128
2018-04-18T04:16:46.290Z,144
2018-04-18T04:17:46.066Z,156
2018-04-18T04:18:46.583Z,176
2018-04-18T04:19:46.351Z,196
2018-04-18T04:20:46.372Z,216
2018-04-18T04:21:46.651Z,236
2018-04-18T04:22:46.410Z,260
2018-04-18T04:23:46.734Z,284
2018-04-18T04:24:46.250Z,304
2018-04-18T04:25:46.472Z,336
2018-04-18T04:26:46.490Z,360
2018-04-18T04:27:46.514Z,388
2018-04-18T04:28:46.800Z,420
2018-04-18T04:29:46.811Z,444
2018-04-18T04:30:46.827Z,476
2018-04-18T04:31:46.591Z,504
2018-04-18T04:32:46.863Z,540
2018-04-18T04:33:46.633Z,572
2018-04-18T04:34:46.653Z,604
2018-04-18T04:35:46.940Z,636
2018-04-18T04:36:46.958Z,672
2018-04-18T04:37:47.020Z,704
2018-04-18T04:38:46.791Z,740
2018-04-18T04:39:46.761Z,772
2018-04-18T04:40:47.037Z,808
2018-04-18T04:41:46.796Z,848
2018-04-18T04:42:47.080Z,884
2018-04-18T04:43:47.142Z,916
2018-04-18T04:44:46.890Z,952
2018-04-18T04:45:47.138Z,992
2018-04-18T04:46:47.150Z,1024
2018-04-18T04:47:46.662Z,1064
2018-04-18T04:48:47.243Z,1096
2018-04-18T04:49:47.220Z,1128
2018-04-18T04:50:46.999Z,1164
2018-04-18T04:51:47.007Z,1200
2018-04-18T04:52:47.313Z,1236
2018-04-18T04:53:47.122Z,1276
2018-04-18T04:54:47.321Z,1316
2018-04-18T04:55:47.346Z,1352
2018-04-18T04:56:47.350Z,1388
2018-04-18T04:57:47.371Z,1424
2018-04-18T04:58:47.144Z,1460
2018-04-18T04:59:47.201Z,1496
2018-04-18T05:00:47.447Z,1532
2018-04-18T05:01:47.465Z,1572
2018-04-18T05:02:47.224Z,1608
2018-04-18T05:03:46.991Z,1644
2018-04-18T05:04:47.259Z,1680
2018-04-18T05:05:47.536Z,1720
2018-04-18T05:06:47.318Z,1756
2018-04-18T05:07:47.070Z,1796
2018-04-18T05:08:47.658Z,1836
2018-04-18T05:09:47.620Z,1876
2018-04-18T05:10:47.392Z,1912
2018-04-18T05:11:47.664Z,1952
2018-04-18T05:12:47.697Z,1992
2018-04-18T05:13:47.445Z,2032
2018-04-18T05:14:47.472Z,2068
2018-04-18T05:15:47.741Z,2108
2018-04-18T05:16:47.513Z,2148
2018-04-18T05:17:47.529Z,2184
2018-04-18T05:18:47.549Z,2228
2018-04-18T05:19:47.824Z,2272
2018-04-18T05:20:47.847Z,2308
2018-04-18T05:21:47.604Z,2344
2018-04-18T05:22:47.666Z,2380
2018-04-18T05:23:47.698Z,2424
2018-04-18T05:24:47.676Z,2464
2018-04-18T05:25:47.441Z,2508
2018-04-18T05:26:47.935Z,2556
2018-04-18T05:27:47.968Z,2600
2018-04-18T05:28:47.778Z,2636
2018-04-18T05:29:48.033Z,2684
2018-04-18T05:30:48.050Z,2724
2018-04-18T05:31:48.082Z,2768
2018-04-18T05:32:48.100Z,2808
2018-04-18T05:33:48.113Z,2848
2018-04-18T05:34:47.881Z,2884
2018-04-18T05:35:47.900Z,2924
2018-04-18T05:36:47.921Z,2944
2018-04-18T05:37:47.958Z,3016
2018-04-18T05:38:48.221Z,3056
2018-04-18T05:39:48.236Z,3092
2018-04-18T05:40:48.242Z,3132
2018-04-18T05:41:48.009Z,3176
2018-04-18T05:42:48.274Z,3224
2018-04-18T05:43:48.097Z,3268
2018-04-18T05:44:48.325Z,3312
2018-04-18T05:45:48.086Z,3360
2018-04-18T05:46:48.118Z,3408
2018-04-18T05:47:48.150Z,3456
2018-04-18T05:48:48.210Z,3500
2018-04-18T05:49:48.446Z,3548
2018-04-18T05:50:48.217Z,3588
2018-04-18T05:51:48.480Z,3628
2018-04-18T05:52:48.527Z,3664
2018-04-18T05:53:48.294Z,3700
2018-04-18T05:54:48.303Z,3732
2018-04-18T05:55:48.324Z,3772
2018-04-18T05:56:48.351Z,3800
2018-04-18T05:57:48.195Z,3840
2018-04-18T05:58:48.534Z,3876
2018-04-18T05:59:48.670Z,3908
2018-04-18T06:00:48.427Z,3940
2018-04-18T06:01:48.446Z,3972
2018-04-18T06:02:48.724Z,4008
2018-04-18T06:03:48.748Z,4056
2018-04-18T06:04:48.608Z,4104
2018-04-18T06:05:48.793Z,4144
2018-04-18T06:06:48.566Z,4208
2018-04-18T06:07:48.330Z,4276
2018-04-18T06:08:48.871Z,4364
2018-04-18T06:09:48.873Z,4428
2018-04-18T06:10:48.389Z,4460
2018-04-18T06:11:48.915Z,4496
2018-04-18T06:12:48.694Z,4536
2018-04-18T06:13:48.453Z,4560
2018-04-18T06:14:48.972Z,4580
2018-04-18T06:15:48.745Z,4592
2018-04-18T06:16:49.017Z,4624
2018-04-18T06:17:48.834Z,4676
2018-04-18T06:18:49.062Z,4724
2018-04-18T06:19:49.085Z,4764
2018-04-18T06:20:48.853Z,4812
2018-04-18T06:21:48.876Z,4840
2018-04-18T06:22:49.267Z,4892
2018-04-18T06:23:49.252Z,4940
2018-04-18T06:24:48.948Z,4976
2018-04-18T06:25:48.732Z,5028
2018-04-18T06:26:49.256Z,5068
2018-04-18T06:27:48.507Z,5116
2018-04-18T06:28:49.290Z,5136
2018-04-18T06:29:49.311Z,5160
2018-04-18T06:30:49.097Z,5192
2018-04-18T06:31:49.110Z,5224
2018-04-18T06:32:49.183Z,5252
2018-04-18T06:33:49.467Z,5272
2018-04-18T06:34:49.425Z,5304
2018-04-18T06:35:49.194Z,5356
2018-04-18T06:36:48.969Z,5384
2018-04-18T06:37:49.579Z,5412
2018-04-18T06:38:49.521Z,5448
2018-04-18T06:39:49.520Z,5480
2018-04-18T06:40:49.545Z,5500
2018-04-18T06:41:49.342Z,5516
2018-04-18T06:42:49.614Z,5544
2018-04-18T06:43:49.623Z,5584
2018-04-18T06:44:49.633Z,5628
2018-04-18T06:45:49.691Z,5660
2018-04-18T06:46:49.427Z,5696
2018-04-18T06:47:49.752Z,5728
2018-04-18T06:48:49.475Z,5776
2018-04-18T06:49:49.764Z,5800
2018-04-18T06:50:49.533Z,5836
2018-04-18T06:51:49.807Z,5852
2018-04-18T06:52:49.837Z,5876
2018-04-18T06:53:49.901Z,5896
2018-04-18T06:54:49.627Z,5920
2018-04-18T06:55:49.139Z,5940
2018-04-18T06:56:49.668Z,5972
2018-04-18T06:57:50.008Z,5752
2018-04-18T06:58:49.976Z,5700
2018-04-18T06:59:50.005Z,5728
2018-04-18T07:00:50.012Z,5752
2018-04-18T07:01:49.287Z,5784
2018-04-18T07:02:49.861Z,5832
2018-04-18T07:03:50.092Z,5860
2018-04-18T07:04:49.601Z,5884
2018-04-18T07:05:50.139Z,5860
2018-04-18T07:06:50.147Z,5936
2018-04-18T07:07:50.171Z,5952
2018-04-18T07:08:50.198Z,6304
2018-04-18T07:09:49.724Z,6024
2018-04-18T07:10:50.248Z,6060
2018-04-18T07:11:50.013Z,6072
2018-04-18T07:12:49.772Z,6104
2018-04-18T07:13:50.053Z,6132
2018-04-18T07:14:50.079Z,6164
2018-04-18T07:15:50.347Z,6204
2018-04-18T07:16:50.119Z,6208
2018-04-18T07:17:50.453Z,6228
2018-04-18T07:18:50.173Z,6236
2018-04-18T07:19:50.212Z,6288
2018-04-18T07:20:49.963Z,6312
2018-04-18T07:21:50.244Z,6344
2018-04-18T07:22:50.367Z,6368
2018-04-18T07:23:50.294Z,6388
2018-04-18T07:24:50.557Z,6416
2018-04-18T07:25:50.329Z,6472
2018-04-18T07:26:50.097Z,6512
2018-04-18T07:27:50.738Z,6536
2018-04-18T07:28:50.652Z,6592
2018-04-18T07:29:50.418Z,6612
2018-04-18T07:30:50.728Z,6636
2018-04-18T07:31:50.466Z,6692
2018-04-18T07:32:50.547Z,6716
2018-04-18T07:33:50.768Z,6760
2018-04-18T07:34:50.546Z,6784
2018-04-18T07:35:50.563Z,6828
2018-04-18T07:36:50.620Z,6884
2018-04-18T07:37:50.627Z,6916
2018-04-18T07:38:50.651Z,6956
2018-04-18T07:39:50.926Z,6988
2018-04-18T07:40:50.696Z,7004
2018-04-18T07:41:50.744Z,7036
2018-04-18T07:42:50.488Z,7064
2018-04-18T07:43:50.787Z,7084
2018-04-18T07:44:50.532Z,7108
2018-04-18T07:45:50.816Z,7148
2018-04-18T07:46:51.076Z,7168
2018-04-18T07:47:51.151Z,7208
2018-04-18T07:48:51.122Z,7216
2018-04-18T07:49:51.152Z,7256
2018-04-18T07:50:50.917Z,7276
2018-04-18T07:51:50.951Z,7316
2018-04-18T07:52:50.471Z,7328
2018-04-18T07:53:51.002Z,7348
2018-04-18T07:54:51.319Z,7368
2018-04-18T07:55:50.798Z,7380
2018-04-18T07:56:50.827Z,7392
2018-04-18T07:57:51.108Z,7404
2018-04-18T07:58:51.373Z,7448
2018-04-18T07:59:51.157Z,7480
2018-04-18T08:00:50.922Z,7488
2018-04-18T08:01:51.256Z,7472
2018-04-18T08:02:51.030Z,7484
2018-04-18T08:03:51.501Z,7492
2018-04-18T08:04:51.543Z,7544
2018-04-18T08:05:51.555Z,7580
2018-04-18T08:06:51.578Z,7596
2018-04-18T08:07:51.657Z,7584
2018-04-18T08:08:51.149Z,7572
2018-04-18T08:09:51.404Z,7652
2018-04-18T08:10:51.672Z,7692
2018-04-18T08:11:51.190Z,7708
2018-04-18T08:12:51.751Z,7732
2018-04-18T08:13:51.759Z,7772
2018-04-18T08:14:51.776Z,7792
2018-04-18T08:15:51.552Z,7780
2018-04-18T08:16:51.578Z,7856
2018-04-18T08:17:51.864Z,7880
2018-04-18T08:18:51.874Z,7880
2018-04-18T08:19:51.659Z,7868
2018-04-18T08:20:51.679Z,7956
2018-04-18T08:21:52.191Z,8064
2018-04-18T08:22:52.090Z,8024
2018-04-18T08:23:51.750Z,8076
2018-04-18T08:24:52.025Z,8112
2018-04-18T08:25:51.806Z,8116
2018-04-18T08:26:52.073Z,8128
2018-04-18T08:27:51.638Z,8112
2018-04-18T08:28:51.872Z,8184
2018-04-18T08:29:51.903Z,8220
2018-04-18T08:30:52.200Z,8232
2018-04-18T08:31:52.211Z,8264
2018-04-18T08:32:51.973Z,8296
2018-04-18T08:33:52.320Z,8300
2018-04-18T08:34:52.031Z,8352
2018-04-18T08:35:52.329Z,8356
2018-04-18T08:36:51.827Z,8376
2018-04-18T08:37:52.155Z,8360
2018-04-18T08:38:52.377Z,8536
2018-04-18T08:39:52.157Z,8424
2018-04-18T08:40:52.580Z,8404
2018-04-18T08:41:52.201Z,8448
2018-04-18T08:42:52.227Z,8548
2018-04-18T08:43:52.513Z,8556
2018-04-18T08:44:52.544Z,8568
2018-04-18T08:45:52.313Z,8612
2018-04-18T08:46:52.594Z,8668
2018-04-18T08:47:52.357Z,8628
2018-04-18T08:48:52.720Z,8560
2018-04-18T08:49:52.667Z,8624
2018-04-18T08:50:52.437Z,8648
2018-04-18T08:51:52.744Z,8696
2018-04-18T08:52:52.558Z,8804
2018-04-18T08:53:52.773Z,8844
2018-04-18T08:54:52.793Z,8876
2018-04-18T08:55:52.569Z,8896
2018-04-18T08:56:52.843Z,9096
2018-04-18T08:57:52.863Z,9116
2018-04-18T08:58:52.637Z,9100
2018-04-18T08:59:52.164Z,9080
2018-04-18T09:00:52.699Z,9040
2018-04-18T09:01:52.722Z,9072
2018-04-18T09:02:52.739Z,9036
2018-04-18T09:03:52.514Z,9124
2018-04-18T09:04:52.798Z,9144
2018-04-18T09:05:53.079Z,9224
2018-04-18T09:06:52.838Z,9188
2018-04-18T09:07:52.930Z,9288
2018-04-18T09:08:53.145Z,9264
2018-04-18T09:09:53.023Z,9340
2018-04-18T09:10:52.956Z,9136
2018-04-18T09:11:53.231Z,9068
2018-04-18T09:12:53.046Z,9168
2018-04-18T09:13:53.274Z,9200
2018-04-18T09:14:53.049Z,9264
2018-04-18T09:15:53.581Z,9328
2018-04-18T09:16:53.359Z,9356
2018-04-18T09:17:53.130Z,9404
2018-04-18T09:18:53.159Z,10132
2018-04-18T09:19:53.442Z,10760
2018-04-18T09:20:53.213Z,11064
2018-04-18T09:21:53.492Z,11068
2018-04-18T09:22:53.260Z,11296
2018-04-18T09:23:53.559Z,11472
2018-04-18T09:24:53.316Z,11236
2018-04-18T09:25:53.346Z,11592
2018-04-18T09:26:53.368Z,11596
2018-04-18T09:27:53.658Z,11688
2018-04-18T09:28:53.689Z,11836
2018-04-18T09:29:53.225Z,11928
2018-04-18T09:30:53.734Z,12044
2018-04-18T09:31:53.777Z,12088
2018-04-18T09:32:53.792Z,12180
2018-04-18T09:33:53.822Z,12256
2018-04-18T09:34:53.340Z,12252
2018-04-18T09:35:53.884Z,12644
2018-04-18T09:36:53.653Z,12728
2018-04-18T09:37:53.691Z,12864
2018-04-18T09:38:54.024Z,12876
2018-04-18T09:39:53.807Z,13164
2018-04-18T09:40:54.018Z,13376
2018-04-18T09:41:54.052Z,13768
2018-04-18T09:42:54.078Z,13892
2018-04-18T09:43:53.602Z,13724
2018-04-18T09:44:53.933Z,13888
2018-04-18T09:45:53.658Z,13952
2018-04-18T09:46:54.212Z,14304
2018-04-18T09:47:54.226Z,14688
2018-04-18T09:48:54.013Z,14976
2018-04-18T09:49:54.300Z,15136
2018-04-18T09:50:54.073Z,15104
2018-04-18T09:51:53.619Z,14592
2018-04-18T09:52:53.881Z,14528
2018-04-18T09:53:53.909Z,15072
2018-04-18T09:54:54.456Z,16416
2018-04-18T09:55:54.245Z,16800
2018-04-18T09:56:54.513Z,16864
2018-04-18T09:57:54.550Z,16512
2018-04-18T09:58:54.340Z,16672
2018-04-18T09:59:54.500Z,17536
2018-04-18T10:00:54.635Z,18048
2018-04-18T10:01:54.693Z,18016
2018-04-18T10:02:54.446Z,18080
2018-04-18T10:03:54.474Z,18112
2018-04-18T10:04:54.768Z,18016
2018-04-18T10:05:54.795Z,18432
2018-04-18T10:06:54.797Z,18688
2018-04-18T10:07:54.606Z,19648
2018-04-18T10:08:54.637Z,19808
2018-04-18T10:09:54.416Z,19168
2018-04-18T10:10:54.710Z,19552
2018-04-18T10:11:54.723Z,19872
2018-04-18T10:12:55.064Z,19360
2018-04-18T10:13:55.068Z,19712
2018-04-18T10:14:55.148Z,20096
2018-04-18T10:15:55.136Z,20256
2018-04-18T10:16:54.920Z,21440
2018-04-18T10:17:55.180Z,22560
2018-04-18T10:18:54.970Z,22816
2018-04-18T10:19:54.740Z,22528
2018-04-18T10:20:55.274Z,21184
2018-04-18T10:21:55.045Z,20960
2018-04-18T10:22:54.969Z,22304
2018-04-18T10:23:55.371Z,23168
2018-04-18T10:24:55.402Z,24032
2018-04-18T10:25:55.429Z,23872
2018-04-18T10:26:55.216Z,24800
2018-04-18T10:27:55.247Z,24640
2018-04-18T10:28:55.546Z,24864
2018-04-18T10:29:55.621Z,25920
2018-04-18T10:30:55.612Z,25632
2018-04-18T10:31:55.647Z,25376
2018-04-18T10:32:55.675Z,24960
2018-04-18T10:33:55.945Z,25664
2018-04-18T10:34:55.750Z,26688
2018-04-18T10:35:55.783Z,27040
2018-04-18T10:36:55.297Z,27392
2018-04-18T10:37:55.588Z,26912
2018-04-18T10:38:55.880Z,27200
2018-04-18T10:39:55.958Z,28160
2018-04-18T10:40:55.685Z,28512
2018-04-18T10:41:55.709Z,28640
2018-04-18T10:42:55.994Z,28672
2018-04-18T10:43:56.040Z,28864
2018-04-18T10:44:56.075Z,27296
2018-04-18T10:45:55.607Z,27392
2018-04-18T10:46:55.643Z,29472
2018-04-18T10:47:55.925Z,30720
2018-04-18T10:48:56.224Z,28832
2018-04-18T10:49:55.995Z,30112
2018-04-18T10:50:56.016Z,32384
2018-04-18T10:51:56.307Z,30400
2018-04-18T10:52:56.460Z,30816
2018-04-18T10:53:56.376Z,28224
2018-04-18T10:54:56.228Z,27104
2018-04-18T10:55:56.442Z,26368
2018-04-18T10:56:56.544Z,24800
2018-04-18T10:57:56.273Z,23040
2018-04-18T10:58:56.037Z,23776
2018-04-18T10:59:56.583Z,25280
2018-04-18T11:00:56.620Z,26112
2018-04-18T11:01:56.656Z,27168
2018-04-18T11:02:56.442Z,27456
2018-04-18T11:03:56.725Z,29664
2018-04-18T11:04:56.743Z,31168
2018-04-18T11:05:56.994Z,32032
2018-04-18T11:06:56.815Z,32832
2018-04-18T11:07:56.596Z,33024
2018-04-18T11:08:56.891Z,32224
2018-04-18T11:09:56.971Z,32736
2018-04-18T11:10:56.700Z,34496
2018-04-18T11:11:56.998Z,34112
2018-04-18T11:12:56.509Z,31680
2018-04-18T11:13:56.798Z,32128
2018-04-18T11:14:57.092Z,33504
2018-04-18T11:15:56.921Z,35552
2018-04-18T11:16:56.905Z,40064
2018-04-18T11:17:57.202Z,40928
2018-04-18T11:18:57.228Z,38080
2018-04-18T11:19:57.251Z,38560
2018-04-18T11:20:57.283Z,40000
2018-04-18T11:21:57.317Z,41312
2018-04-18T11:22:57.133Z,42848
2018-04-18T11:23:57.397Z,44640
2018-04-18T11:24:57.214Z,43648
2018-04-18T11:25:57.220Z,42624
2018-04-18T11:26:56.758Z,45472
2018-04-18T11:27:57.267Z,45856
2018-04-18T11:28:57.057Z,43040
2018-04-18T11:29:57.349Z,43456
2018-04-18T11:30:57.128Z,46496
2018-04-18T11:31:57.164Z,49376
2018-04-18T11:32:57.197Z,49408
2018-04-18T11:33:57.743Z,47488
2018-04-18T11:34:57.532Z,47936
2018-04-18T11:35:57.812Z,49024
2018-04-18T11:36:57.870Z,48448
2018-04-18T11:37:57.876Z,51072
2018-04-18T11:38:57.663Z,52800
2018-04-18T11:39:57.754Z,47584
2018-04-18T11:40:57.509Z,52192
2018-04-18T11:41:57.778Z,54560
2018-04-18T11:42:58.070Z,47424
2018-04-18T11:43:58.126Z,47008
2018-04-18T11:44:58.142Z,52160
2018-04-18T11:45:57.946Z,53888
2018-04-18T11:46:57.964Z,54336
2018-04-18T11:47:57.998Z,53472
2018-04-18T11:48:58.036Z,52864
2018-04-18T11:49:58.065Z,56736
2018-04-18T11:50:58.340Z,58144
2018-04-18T11:51:57.939Z,58528
2018-04-18T11:52:58.167Z,58944
2018-04-18T11:53:58.217Z,61472
2018-04-18T11:54:58.043Z,60704
2018-04-18T11:55:58.535Z,60000
2018-04-18T11:56:58.064Z,62272
2018-04-18T11:57:58.609Z,61856
2018-04-18T11:58:58.391Z,56512
2018-04-18T11:59:58.669Z,51616
2018-04-18T12:00:58.452Z,55008
2018-04-18T12:01:58.743Z,56448
2018-04-18T12:02:58.527Z,54464
2018-04-18T12:03:58.563Z,52896
2018-04-18T12:04:58.846Z,47840
2018-04-18T12:05:58.636Z,45056
2018-04-18T12:06:58.428Z,44928
2018-04-18T12:07:58.701Z,42976
2018-04-18T12:08:59.016Z,43936
2018-04-18T12:09:58.949Z,49472
2018-04-18T12:10:59.071Z,56032
2018-04-18T12:11:59.129Z,57088
2018-04-18T12:12:58.894Z,53056
2018-04-18T12:13:58.944Z,50144
2018-04-18T12:14:58.984Z,51136
2018-04-18T12:15:59.282Z,51360
2018-04-18T12:16:59.305Z,52928
2018-04-18T12:17:59.091Z,53952
2018-04-18T12:18:59.385Z,53760
2018-04-18T12:19:59.433Z,52608
2018-04-18T12:20:59.472Z,50080
2018-04-18T12:21:59.493Z,54688
2018-04-18T12:22:59.277Z,60000
2018-04-18T12:23:59.319Z,58656
2018-04-18T12:24:59.403Z,56480
2018-04-18T12:25:59.650Z,57376
2018-04-18T12:26:59.434Z,61504
2018-04-18T12:27:59.471Z,64960
2018-04-18T12:28:59.500Z,65888
2018-04-18T12:29:59.539Z,65920
2018-04-18T12:30:59.324Z,67744
2018-04-18T12:31:59.904Z,67552
2018-04-18T12:32:59.674Z,67520
2018-04-18T12:33:59.939Z,68576
2018-04-18T12:34:59.978Z,69056
2018-04-18T12:36:00.020Z,68608
2018-04-18T12:37:00.046Z,68448
2018-04-18T12:37:59.902Z,68448
2018-04-18T12:38:59.621Z,69792
2018-04-18T12:39:59.908Z,71136
2018-04-18T12:40:59.941Z,70848
2018-04-18T12:42:00.238Z,69728
2018-04-18T12:43:00.276Z,69504
2018-04-18T12:44:00.312Z,69440
2018-04-18T12:44:59.847Z,68704
2018-04-18T12:46:00.395Z,67360
2018-04-18T12:47:00.478Z,66336
2018-04-18T12:48:00.207Z,67904
2018-04-18T12:49:00.345Z,69504
2018-04-18T12:50:00.550Z,70368
2018-04-18T12:51:00.593Z,70432
2018-04-18T12:52:00.117Z,69088
2018-04-18T12:53:00.716Z,68160
2018-04-18T12:54:00.443Z,69120
2018-04-18T12:55:00.486Z,71808
2018-04-18T12:56:00.768Z,74208
2018-04-18T12:57:00.818Z,73344
2018-04-18T12:58:00.350Z,73888
2018-04-18T12:59:00.641Z,74880
2018-04-18T13:00:00.941Z,74656
2018-04-18T13:01:00.720Z,72576
2018-04-18T13:02:00.501Z,72096
2018-04-18T13:03:00.822Z,74048
2018-04-18T13:04:00.860Z,74976
2018-04-18T13:05:01.126Z,74016
2018-04-18T13:06:00.906Z,72896
2018-04-18T13:07:00.693Z,71456
2018-04-18T13:08:01.302Z,69280
2018-04-18T13:09:01.296Z,71392
2018-04-18T13:10:00.811Z,75264
2018-04-18T13:11:01.110Z,75904
2018-04-18T13:12:01.145Z,77632
2018-04-18T13:13:01.439Z,76608
2018-04-18T13:14:01.477Z,76896
2018-04-18T13:15:01.518Z,77888
2018-04-18T13:16:01.299Z,76608
2018-04-18T13:17:00.828Z,75072
2018-04-18T13:18:01.629Z,76256
2018-04-18T13:19:01.677Z,77664
2018-04-18T13:20:01.715Z,74560
2018-04-18T13:21:01.242Z,66112
2018-04-18T13:22:01.290Z,59488
2018-04-18T13:23:01.460Z,61408
2018-04-18T13:24:01.848Z,66976
2018-04-18T13:25:01.893Z,71488
2018-04-18T13:26:01.922Z,74144
2018-04-18T13:27:01.962Z,74272
2018-04-18T13:28:01.753Z,73728
2018-04-18T13:29:02.050Z,70752
2018-04-18T13:30:01.584Z,72448
2018-04-18T13:31:02.010Z,74432
2018-04-18T13:32:01.909Z,77600
2018-04-18T13:33:01.950Z,77216
2018-04-18T13:34:01.739Z,77024
2018-04-18T13:35:02.281Z,76768
2018-04-18T13:36:02.068Z,77024